createdAt,value
2018-12-23T00:11:52.007Z,27.32
2018-12-23T02:09:52.280Z,28.87
2018-12-23T02:15:33.489Z,27.82
2018-12-23T04:35:19.502Z,24.90
2018-12-23T04:43:59.909Z,25.82
2018-12-23T04:46:39.691Z,25.88
2018-12-23T04:52:19.922Z,24.72
2018-12-23T05:04:07.010Z,30.88
2018-12-23T05:06:43.339Z,33.63
2018-12-23T05:14:55.278Z,26.33
2018-12-23T05:17:26.135Z,21.80
2018-12-23T05:20:01.014Z,19.85
2018-12-23T05:22:42.189Z,25.25
2018-12-23T05:34:29.023Z,18.35
2018-12-23T05:37:21.747Z,25.97
2018-12-23T05:40:19.288Z,12.37
2018-12-23T05:52:16.359Z,12.00
2018-12-23T06:28:09.232Z,24.52
2018-12-23T06:30:44.561Z,28.50
2018-12-23T06:39:47.565Z,24.10
2018-12-23T06:42:38.051Z,23.62
2018-12-23T06:48:05.025Z,27.77
2018-12-23T06:51:05.661Z,18.07
2018-12-23T06:59:50.304Z,24.75
2018-12-23T07:02:24.637Z,17.73
2018-12-23T07:07:52.161Z,24.20
2018-12-23T07:22:47.571Z,21.37
2018-12-23T07:25:36.318Z,16.00
2018-12-23T07:28:16.457Z,18.77
2018-12-23T07:30:52.589Z,17.80
2018-12-23T07:36:25.526Z,25.08
2018-12-23T07:41:54.834Z,19.85
2018-12-23T07:44:46.151Z,25.85
2018-12-23T07:47:26.930Z,27.40
2018-12-23T07:50:02.907Z,14.15
2018-12-23T07:52:46.041Z,19.55
2018-12-23T08:01:24.834Z,19.12
2018-12-23T08:09:53.342Z,24.40
2018-12-23T08:12:35.266Z,25.60
2018-12-23T08:15:12.092Z,23.07
2018-12-23T08:18:03.432Z,26.20
2018-12-23T08:20:50.408Z,24.32
2018-12-23T08:23:38.229Z,23.62
2018-12-23T08:26:19.422Z,22.25
2018-12-23T08:29:01.970Z,20.43
2018-12-23T08:34:52.341Z,19.37
2018-12-23T08:43:42.716Z,17.70
2018-12-23T08:46:22.111Z,34.03
2018-12-23T09:04:14.385Z,15.13
2018-12-23T09:09:52.010Z,15.45
2018-12-23T09:12:25.967Z,18.00
2018-12-23T09:15:00.172Z,17.02
2018-12-23T09:17:32.123Z,19.75
2018-12-23T09:20:04.364Z,22.17
2018-12-23T09:22:40.902Z,20.62
2018-12-23T09:25:18.875Z,13.08
2018-12-23T09:27:52.855Z,18.90
2018-12-23T09:30:21.291Z,19.82
2018-12-23T09:32:49.484Z,24.05
2018-12-23T09:35:17.642Z,22.87
2018-12-23T09:37:45.760Z,22.42
2018-12-23T09:40:23.797Z,14.58
2018-12-23T09:43:02.969Z,19.30
2018-12-23T09:45:43.008Z,16.62
2018-12-23T09:48:21.688Z,19.05
2018-12-23T09:51:01.414Z,18.82
2018-12-23T09:53:42.301Z,22.02
2018-12-23T09:56:20.359Z,18.37
2018-12-23T09:58:55.864Z,18.05
2018-12-23T10:01:33.821Z,23.65
2018-12-23T10:04:12.546Z,18.55
2018-12-23T10:06:59.232Z,22.67
2018-12-23T10:09:46.096Z,15.80
2018-12-23T10:12:32.675Z,19.62
2018-12-23T10:15:14.150Z,21.33
2018-12-23T10:17:48.491Z,20.88
2018-12-23T10:20:25.404Z,22.37
2018-12-23T10:23:03.250Z,20.00
2018-12-23T10:28:45.146Z,17.15
2018-12-23T10:31:26.040Z,21.35
2018-12-23T10:34:07.102Z,20.27
2018-12-23T10:36:45.734Z,21.17
2018-12-23T10:39:23.952Z,24.70
2018-12-23T10:42:04.756Z,25.32
2018-12-23T10:44:45.945Z,25.35
2018-12-23T10:47:18.099Z,29.85
2018-12-23T10:49:55.115Z,21.42
2018-12-23T10:52:31.269Z,21.87
2018-12-23T10:55:18.030Z,20.27
2018-12-23T10:57:53.157Z,15.70
2018-12-23T11:00:32.329Z,20.62
2018-12-23T11:03:13.271Z,20.27
2018-12-23T11:08:53.842Z,22.22
2018-12-23T11:11:35.325Z,19.98
2018-12-23T11:14:24.608Z,21.52
2018-12-23T11:17:06.031Z,24.57
2018-12-23T11:19:45.316Z,23.22
2018-12-23T11:28:24.747Z,19.73
2018-12-23T11:31:13.385Z,19.75
2018-12-23T11:39:55.329Z,11.57
2018-12-23T11:42:41.995Z,15.43
2018-12-23T11:45:15.386Z,19.12
2018-12-23T11:47:55.188Z,16.67
2018-12-23T11:50:33.921Z,17.98
2018-12-23T11:53:22.881Z,20.88
2018-12-23T11:55:55.271Z,21.95
2018-12-23T12:01:15.130Z,14.90
2018-12-23T12:06:48.233Z,18.80
2018-12-23T12:18:31.362Z,17.62
2018-12-23T12:21:12.312Z,12.85
2018-12-23T12:23:59.564Z,14.47
2018-12-23T12:26:44.776Z,18.27
2018-12-23T12:29:22.996Z,8.50
2018-12-23T12:31:55.050Z,15.55
2018-12-23T12:34:33.522Z,15.80
2018-12-23T12:37:06.005Z,19.00
2018-12-23T12:39:43.781Z,16.73
2018-12-23T12:51:44.107Z,19.70
2018-12-23T12:54:16.875Z,22.82
2018-12-23T12:56:47.637Z,16.20
2018-12-23T12:59:20.452Z,16.48
2018-12-23T13:01:52.651Z,19.10
2018-12-23T13:04:26.878Z,15.95
2018-12-23T13:07:01.214Z,16.35
2018-12-23T13:09:33.328Z,14.68
2018-12-23T13:18:03.200Z,18.48
2018-12-23T13:20:40.017Z,14.83
2018-12-23T13:23:14.758Z,13.50
2018-12-23T13:25:49.639Z,11.20
2018-12-23T13:28:35.282Z,15.00
2018-12-23T13:31:07.949Z,16.82
2018-12-23T13:33:38.820Z,14.40
2018-12-23T13:36:20.116Z,11.00
2018-12-23T13:38:52.397Z,10.18
2018-12-23T13:44:37.397Z,13.90
2018-12-23T13:47:22.152Z,15.65
2018-12-23T13:51:08.059Z,10.85
2018-12-23T13:53:49.491Z,10.70
2018-12-23T13:57:02.854Z,17.27
2018-12-23T13:59:59.164Z,13.28
2018-12-23T14:02:40.132Z,17.73
2018-12-23T14:08:31.572Z,21.73
2018-12-23T14:11:22.486Z,21.00
2018-12-23T14:13:54.263Z,19.35
2018-12-23T14:16:29.940Z,14.70
2018-12-23T14:19:07.344Z,22.20
2018-12-23T14:21:41.052Z,13.40
2018-12-23T14:24:12.806Z,13.68
2018-12-23T14:26:53.921Z,8.03
2018-12-23T14:33:09.613Z,11.03
2018-12-23T14:35:39.675Z,15.08
2018-12-23T14:38:58.760Z,10.00
2018-12-23T14:41:28.709Z,9.45
2018-12-23T14:43:59.003Z,12.58
2018-12-23T14:46:29.291Z,9.23
2018-12-23T14:48:59.424Z,12.10
2018-12-23T14:51:29.165Z,9.28
2018-12-23T14:53:59.301Z,12.18
2018-12-23T14:56:30.178Z,13.78
2018-12-23T14:59:00.499Z,17.92
2018-12-23T15:01:55.194Z,10.08
2018-12-23T15:04:27.741Z,14.60
2018-12-23T15:06:57.523Z,18.80
2018-12-23T15:09:34.235Z,15.13
2018-12-23T15:12:08.814Z,10.65
2018-12-23T15:14:38.908Z,18.60
2018-12-23T15:17:09.621Z,9.45
2018-12-23T15:19:39.435Z,15.13
2018-12-23T15:22:09.338Z,14.50
2018-12-23T15:24:39.129Z,15.43
2018-12-23T15:27:27.926Z,15.53
2018-12-23T15:29:57.919Z,15.15
2018-12-23T15:32:27.540Z,18.00
2018-12-23T15:34:57.156Z,19.12
2018-12-23T15:37:26.778Z,22.05
2018-12-23T15:39:56.553Z,17.50
2018-12-23T15:42:26.373Z,20.95
2018-12-23T15:44:56.266Z,15.45
2018-12-23T15:47:25.812Z,18.05
2018-12-23T15:49:55.466Z,22.42
2018-12-23T15:52:25.133Z,21.33
2018-12-23T15:54:55.292Z,19.82
2018-12-23T15:57:32.888Z,19.37
2018-12-23T16:00:03.323Z,23.98
2018-12-23T16:03:00.539Z,19.10
2018-12-23T16:19:52.496Z,23.90
2018-12-23T17:47:53.622Z,8.98
2018-12-23T18:47:54.837Z,7.62
2018-12-23T19:44:12.530Z,7.45
2018-12-23T21:09:21.738Z,17.75
2018-12-23T21:13:03.806Z,19.55
2018-12-23T21:16:24.621Z,15.20
2018-12-23T21:19:38.880Z,19.57
2018-12-23T21:23:20.433Z,21.82
2018-12-23T21:35:23.599Z,18.37
2018-12-23T22:16:44.683Z,17.02
2018-12-23T22:17:06.520Z,14.98
2018-12-23T22:26:23.575Z,17.57
2018-12-23T22:29:23.210Z,15.23
2018-12-23T22:39:56.587Z,16.75
2018-12-23T22:45:31.931Z,16.52
2018-12-23T22:49:04.936Z,19.00
2018-12-23T22:56:01.121Z,24.55
2018-12-23T22:59:06.241Z,22.62
2018-12-23T23:08:54.854Z,16.70
2018-12-23T23:11:52.886Z,16.45
2018-12-23T23:22:09.980Z,8.53
2018-12-23T23:25:41.455Z,6.17
2018-12-23T23:28:29.266Z,3.60
2018-12-23T23:31:57.212Z,3.87
2018-12-23T23:35:29.661Z,2.90
2018-12-23T23:42:28.821Z,3.85
2018-12-23T23:45:06.492Z,3.60
2018-12-23T23:47:44.884Z,3.10
2018-12-23T23:57:26.580Z,4.62
